Airfield :
LOGIN :

Register | Disclaimer

   EN    FR    IT 

 










Legend :    VFR   Marginal VFR   IFR   Intensive IFR   Very Intensive IFR
Visi :
Ceiling :
>= 8 km
>= 3000ft
5 to 8 km
1000 to 3000 ft
1500m to 5 km
500 to 1000 ft
800 to 1500m
200 to 500 ft
< 800m
< 200 ft
Symbols :   Thunderstorms  Fog  Heavy snow  Heavy precipitations  Wind > 20 kt
SIGMETs :     Misc.  Thunderstorms  Icing  Turbulence  Mountain Waves  Volcanic Ashes







- Airport Elevation : 146 ft
- IATA code : RKE


EKRK - Roskilde Tune

CURRENT METAR :
  • 211720Z AUTO 30011KT 3500NDV -SHRA BR SCT003/// BKN005/// OVC007/// 08/07 Q1020

EXPIRED METARs :
  • 211650Z AUTO 30010KT 3600NDV -SHRA BR BKN005/// OVC008/// 08/07 Q1020
  • 211620Z AUTO 29009KT 7000NDV -DZ FEW003/// BKN006/// OVC009/// 08/07 Q1019
  • 211550Z AUTO 28009KT 2600NDV -RA BR FEW003/// BKN006/// OVC009/// 08/07 Q1019
  • 211520Z AUTO 28011KT 3300NDV -SHRA BR FEW005/// BKN007/// BKN011/// OVC018/// 08/07 Q1019
  • 211450Z AUTO 28011KT 7000NDV FEW005/// BKN008/// BKN032/// 08/07 Q1018

TAF TAF EKRK
Valid from the 21 at 18:00 until the 22 at 03:00 UTC


211725Z 2118/2203 34010KT 5000 BKN004
TEMPO 2118/2123 1000 BR BKN008
TEMPO 2123/2201 3000 -RADZ BR BKN012
BECMG 2201/2203 09012KT FEW004 SCT020
No reported NOTAMs for that airfield.



MET'MAP, your aeronautical weather chart ! - Copyright ORBIFLY December 2007 - Disclaimer

ORBIFLY MET'MAP TEAM :

Programming & Development : Alexandra Zaïnal
Concept & Development : Baudouin d'Aumeries
Co-Development & Prog : Marc-Olivier Méhu
Technical & hardware support : Manuel Goepfert

Contact : metmap@orbifly.com




SOURCES & CREDITS :

   NOAA